Time;durP1;ratioP1;P1;durP2;ratioP2;P2;SDS_P1;SDS_P2;PMS_P1;PMS_P2;Temp;Humidity;BMP_temperature;BMP_pressure;BME280_temperature;BME280_humidity;BME280_pressure;Samples;Min_cycle;Max_cycle;Signal;HPM_P1;HPM_P2
2021/12/09 00:01:14;;;;;;;16.92;7.85;;;4.70;99.90;;;;;;5056934;28;20063;-73
2021/12/09 00:03:40;;;;;;;19.27;8.23;;;4.70;99.90;;;;;;5061126;28;20032;-73
2021/12/09 00:06:08;;;;;;;15.05;6.78;;;4.70;99.90;;;;;;5064023;28;20031;-74
2021/12/09 00:08:34;;;;;;;18.42;7.45;;;4.60;99.90;;;;;;5065993;28;20469;-74
2021/12/09 00:11:04;;;;;;;20.73;7.70;;;4.70;99.90;;;;;;5060745;28;20031;-74
2021/12/09 00:13:29;;;;;;;20.00;8.13;;;4.70;99.90;;;;;;5063077;28;20032;-74
2021/12/09 00:15:57;;;;;;;20.15;7.47;;;4.70;99.90;;;;;;5060482;28;20043;-74
2021/12/09 00:18:24;;;;;;;14.40;6.65;;;4.60;99.90;;;;;;5061857;28;20064;-74
2021/12/09 00:20:50;;;;;;;15.98;6.85;;;4.60;99.90;;;;;;5060559;28;20036;-74
2021/12/09 00:23:16;;;;;;;15.88;7.07;;;4.60;99.90;;;;;;5064662;28;20017;-74
2021/12/09 00:25:42;;;;;;;16.75;7.57;;;4.70;99.90;;;;;;5064074;28;20369;-74
2021/12/09 00:28:08;;;;;;;17.60;8.88;;;4.70;99.90;;;;;;5062872;28;20091;-74
2021/12/09 00:30:35;;;;;;;16.02;7.75;;;4.60;99.90;;;;;;5066857;28;20439;-74
2021/12/09 00:33:03;;;;;;;15.70;6.53;;;4.60;99.90;;;;;;5057036;28;20025;-74
2021/12/09 00:35:43;;;;;;;11.98;6.85;;;4.60;99.90;;;;;;5061387;28;20132;-74
2021/12/09 00:38:13;;;;;;;13.45;6.43;;;4.60;99.90;;;;;;5061492;28;20067;-74
2021/12/09 00:40:39;;;;;;;11.70;6.47;;;4.60;99.90;;;;;;5057737;28;20544;-73
2021/12/09 00:43:05;;;;;;;13.65;6.32;;;4.50;99.90;;;;;;5064300;28;20111;-74
2021/12/09 00:45:31;;;;;;;15.45;6.93;;;4.60;99.90;;;;;;5066839;28;20033;-73
2021/12/09 00:47:57;;;;;;;14.65;8.48;;;4.60;99.90;;;;;;5053824;28;20025;-73
2021/12/09 00:50:23;;;;;;;18.65;6.03;;;4.70;99.90;;;;;;5064275;28;20087;-74
2021/12/09 00:52:50;;;;;;;15.40;5.80;;;4.60;99.90;;;;;;5061130;28;20047;-74
2021/12/09 00:55:17;;;;;;;14.73;6.53;;;4.60;99.90;;;;;;5060866;28;20045;-73
2021/12/09 00:57:43;;;;;;;14.82;6.47;;;4.60;99.90;;;;;;5065246;28;20067;-73
2021/12/09 01:00:18;;;;;;;12.70;6.25;;;4.50;99.90;;;;;;5064398;28;20024;-73
2021/12/09 01:02:44;;;;;;;12.25;5.85;;;4.50;99.90;;;;;;5069006;28;20020;-73
2021/12/09 01:05:10;;;;;;;15.27;6.68;;;4.50;99.90;;;;;;5062927;28;22437;-74
2021/12/09 01:07:38;;;;;;;14.43;7.03;;;4.60;99.90;;;;;;5063996;28;20100;-73
2021/12/09 01:10:06;;;;;;;15.73;6.32;;;4.60;99.90;;;;;;5068146;28;20024;-73
2021/12/09 01:12:32;;;;;;;13.57;6.15;;;4.60;99.90;;;;;;5071088;28;20028;-73
2021/12/09 01:14:58;;;;;;;18.40;6.78;;;4.60;99.90;;;;;;5068163;28;20028;-74
2021/12/09 01:17:25;;;;;;;12.25;5.43;;;4.50;99.90;;;;;;5061340;28;20033;-74
2021/12/09 01:19:52;;;;;;;14.25;6.68;;;4.50;99.90;;;;;;5069564;28;20108;-73
2021/12/09 01:22:20;;;;;;;13.73;6.20;;;4.50;99.90;;;;;;5060880;28;20035;-74
2021/12/09 01:24:46;;;;;;;12.02;6.00;;;4.50;99.90;;;;;;5066110;28;20074;-73
2021/12/09 01:27:12;;;;;;;14.13;6.15;;;4.50;99.90;;;;;;5063969;28;20078;-74
2021/12/09 01:29:41;;;;;;;14.35;5.95;;;4.50;99.90;;;;;;5061709;28;20040;-73
2021/12/09 01:32:10;;;;;;;10.75;5.55;;;4.60;99.90;;;;;;5062399;28;20059;-74
2021/12/09 01:34:37;;;;;;;16.30;6.03;;;4.60;99.90;;;;;;5062422;28;20510;-73
2021/12/09 01:37:05;;;;;;;14.52;5.75;;;4.60;99.90;;;;;;5063039;28;20056;-74
2021/12/09 01:39:31;;;;;;;11.48;5.28;;;4.50;99.90;;;;;;5065335;28;20029;-73
2021/12/09 01:41:58;;;;;;;15.23;6.80;;;4.50;99.90;;;;;;5071678;28;20465;-73
2021/12/09 01:44:24;;;;;;;10.68;5.18;;;4.60;99.90;;;;;;5061855;28;20028;-74
2021/12/09 01:46:50;;;;;;;22.30;7.60;;;4.50;99.90;;;;;;5064252;28;20029;-73
2021/12/09 01:49:16;;;;;;;13.45;5.93;;;4.50;99.90;;;;;;5064559;28;20055;-74
2021/12/09 01:51:45;;;;;;;13.65;5.00;;;4.50;99.90;;;;;;5063197;28;20488;-74
2021/12/09 01:54:11;;;;;;;9.45;4.97;;;4.40;99.90;;;;;;5073716;28;20111;-73
2021/12/09 01:56:37;;;;;;;16.48;5.45;;;4.40;99.90;;;;;;5071437;28;20032;-73
2021/12/09 01:59:05;;;;;;;14.77;5.95;;;4.40;99.90;;;;;;5066291;28;20396;-73
2021/12/09 02:01:31;;;;;;;19.65;5.97;;;4.40;99.90;;;;;;5064565;28;20025;-74
2021/12/09 02:03:58;;;;;;;16.70;6.47;;;4.40;99.90;;;;;;5071201;28;20024;-74
2021/12/09 02:06:25;;;;;;;10.98;5.38;;;4.40;99.90;;;;;;5066763;28;20024;-73
2021/12/09 02:08:52;;;;;;;12.32;4.85;;;4.40;99.90;;;;;;5065561;28;20025;-73
2021/12/09 02:11:18;;;;;;;13.07;5.40;;;4.40;99.90;;;;;;5064899;28;20043;-74
2021/12/09 02:13:44;;;;;;;11.90;5.53;;;4.40;99.90;;;;;;5073482;28;20032;-74
2021/12/09 02:16:13;;;;;;;12.65;4.95;;;4.40;99.90;;;;;;5063115;28;20104;-74
2021/12/09 02:18:39;;;;;;;15.13;5.75;;;4.40;99.90;;;;;;5065029;28;20032;-74
2021/12/09 02:21:07;;;;;;;10.77;5.13;;;4.40;99.90;;;;;;5062233;28;20029;-74
2021/12/09 02:23:34;;;;;;;13.45;4.63;;;4.40;99.90;;;;;;5062960;28;20085;-74
2021/12/09 02:26:00;;;;;;;24.58;5.35;;;4.40;99.90;;;;;;5063457;28;20033;-74
2021/12/09 02:28:26;;;;;;;13.13;5.50;;;4.40;99.90;;;;;;5065328;28;20040;-73
2021/12/09 02:30:52;;;;;;;13.35;5.28;;;4.30;99.90;;;;;;5066296;28;20086;-74
2021/12/09 02:33:18;;;;;;;11.57;4.82;;;4.30;99.90;;;;;;5068039;28;20081;-74
2021/12/09 02:35:44;;;;;;;10.75;4.57;;;4.30;99.90;;;;;;5068593;28;20025;-74
2021/12/09 02:38:09;;;;;;;12.30;5.35;;;4.30;99.90;;;;;;5067092;28;20025;-73
2021/12/09 02:40:36;;;;;;;10.18;5.45;;;4.30;99.90;;;;;;5066235;28;20021;-74
2021/12/09 02:43:05;;;;;;;15.15;5.13;;;4.30;99.90;;;;;;5064059;28;20070;-74
2021/12/09 02:45:30;;;;;;;13.52;4.88;;;4.20;99.90;;;;;;5062258;28;20025;-74
2021/12/09 02:47:56;;;;;;;11.35;4.75;;;4.20;99.90;;;;;;5065933;28;20068;-74
2021/12/09 02:50:22;;;;;;;15.73;5.32;;;4.30;99.90;;;;;;5060356;28;20041;-74
2021/12/09 02:52:48;;;;;;;13.32;4.68;;;4.30;99.90;;;;;;5058763;28;20983;-74
2021/12/09 02:55:14;;;;;;;16.48;5.13;;;4.30;99.90;;;;;;5063514;28;20428;-74
2021/12/09 02:57:40;;;;;;;8.30;4.90;;;4.30;99.90;;;;;;5070636;28;20047;-74
2021/12/09 03:00:08;;;;;;;13.65;5.07;;;4.30;99.90;;;;;;5059226;28;20067;-73
2021/12/09 03:02:34;;;;;;;23.08;6.15;;;4.30;99.90;;;;;;5069638;28;20051;-73
2021/12/09 03:05:02;;;;;;;15.10;5.22;;;4.20;99.90;;;;;;5069699;28;20063;-73
2021/12/09 03:07:32;;;;;;;15.60;4.95;;;4.20;99.90;;;;;;5065625;28;20036;-74
2021/12/09 03:10:03;;;;;;;17.13;5.15;;;4.20;99.90;;;;;;5060145;28;20044;-73
2021/12/09 03:12:35;;;;;;;12.80;4.53;;;4.20;99.90;;;;;;5068126;28;20107;-74
2021/12/09 03:15:05;;;;;;;10.73;4.07;;;4.20;99.90;;;;;;5061101;28;20025;-73
2021/12/09 03:17:30;;;;;;;14.70;4.40;;;4.20;99.90;;;;;;5065004;28;20052;-73
2021/12/09 03:19:56;;;;;;;11.38;4.82;;;4.20;99.90;;;;;;5064548;28;20102;-73
2021/12/09 03:22:23;;;;;;;13.52;4.85;;;4.20;99.90;;;;;;5070413;28;20021;-74
2021/12/09 03:24:49;;;;;;;12.88;5.53;;;4.30;99.90;;;;;;5062243;28;20032;-74
2021/12/09 03:27:15;;;;;;;12.05;4.70;;;4.30;99.90;;;;;;5065891;28;20025;-73
2021/12/09 03:29:41;;;;;;;9.00;3.85;;;4.30;99.90;;;;;;5062723;28;20040;-74
2021/12/09 03:32:13;;;;;;;14.60;4.50;;;4.30;99.90;;;;;;5065298;28;20028;-73
2021/12/09 03:34:40;;;;;;;13.13;4.82;;;4.20;99.90;;;;;;5062923;28;20029;-73
2021/12/09 03:37:11;;;;;;;16.50;5.35;;;4.20;99.90;;;;;;5071444;28;20037;-73
2021/12/09 03:39:40;;;;;;;15.20;5.03;;;4.20;99.90;;;;;;5076812;28;20027;-73
2021/12/09 03:42:07;;;;;;;9.55;4.65;;;4.20;99.90;;;;;;5058558;28;20102;-73
2021/12/09 03:44:33;;;;;;;8.63;3.95;;;4.30;99.90;;;;;;5070453;28;20480;-74
2021/12/09 03:47:03;;;;;;;15.88;4.13;;;4.30;99.90;;;;;;5067779;28;20025;-73
2021/12/09 03:49:29;;;;;;;13.13;3.78;;;4.20;99.90;;;;;;5075885;28;20102;-73
2021/12/09 03:51:56;;;;;;;11.38;4.00;;;4.20;99.90;;;;;;5076871;28;20480;-74
2021/12/09 03:54:22;;;;;;;11.35;3.97;;;4.20;99.90;;;;;;5069243;28;20366;-73
2021/12/09 03:56:48;;;;;;;10.55;4.78;;;4.20;99.90;;;;;;5074273;28;20020;-73
2021/12/09 03:59:14;;;;;;;10.98;4.05;;;4.10;99.90;;;;;;5064270;28;20804;-73
2021/12/09 04:01:41;;;;;;;7.88;3.67;;;4.10;99.90;;;;;;5074354;28;20039;-73
2021/12/09 04:04:08;;;;;;;15.20;4.50;;;4.10;99.90;;;;;;5071748;28;20380;-74
2021/12/09 04:06:35;;;;;;;9.48;4.32;;;4.10;99.90;;;;;;5067397;28;20064;-74
2021/12/09 04:09:02;;;;;;;12.57;4.25;;;4.10;99.90;;;;;;5067379;28;20088;-73
2021/12/09 04:11:28;;;;;;;7.72;3.72;;;4.10;99.90;;;;;;5066990;28;20021;-74
2021/12/09 04:13:54;;;;;;;8.13;3.10;;;4.10;99.90;;;;;;5070201;28;20043;-74
2021/12/09 04:16:21;;;;;;;16.50;4.10;;;4.10;99.90;;;;;;5080338;28;20020;-73
2021/12/09 04:18:47;;;;;;;8.50;4.00;;;4.10;99.90;;;;;;5065647;28;20056;-73
2021/12/09 04:21:13;;;;;;;14.98;4.30;;;4.00;99.90;;;;;;5070233;28;20025;-74
2021/12/09 04:23:39;;;;;;;8.65;3.60;;;4.10;99.90;;;;;;5063935;28;20016;-73
2021/12/09 04:26:06;;;;;;;11.68;3.47;;;4.10;99.90;;;;;;5069743;28;20151;-74
2021/12/09 04:28:33;;;;;;;11.93;3.38;;;4.00;99.90;;;;;;5076168;28;20028;-74
2021/12/09 04:30:58;;;;;;;10.98;3.58;;;4.00;99.90;;;;;;5065128;28;20432;-73
2021/12/09 04:33:24;;;;;;;10.48;3.35;;;4.00;99.90;;;;;;5067907;28;20032;-74
2021/12/09 04:35:50;;;;;;;12.00;3.72;;;4.00;99.90;;;;;;5070268;28;20033;-74
2021/12/09 04:38:15;;;;;;;11.93;3.95;;;4.00;99.90;;;;;;5073871;28;20078;-74
2021/12/09 04:40:41;;;;;;;11.48;3.47;;;4.00;99.90;;;;;;5054007;28;20029;-73
2021/12/09 04:43:07;;;;;;;13.07;3.50;;;4.10;99.90;;;;;;5053970;28;20025;-74
2021/12/09 04:45:34;;;;;;;9.02;3.63;;;4.10;99.90;;;;;;5054892;28;20435;-74
2021/12/09 04:48:00;;;;;;;12.15;3.67;;;4.10;99.90;;;;;;5056293;28;20020;-74
2021/12/09 04:50:26;;;;;;;12.57;4.00;;;4.10;99.90;;;;;;5070494;28;20691;-73
2021/12/09 04:52:53;;;;;;;9.82;3.50;;;4.10;99.90;;;;;;5068471;28;20024;-74
2021/12/09 04:55:19;;;;;;;11.63;4.60;;;4.10;99.90;;;;;;5078107;28;20081;-72
2021/12/09 04:57:45;;;;;;;10.38;3.60;;;4.00;99.90;;;;;;5077353;28;20027;-73
2021/12/09 05:00:16;;;;;;;10.50;4.03;;;4.00;99.90;;;;;;5082470;28;20469;-73
2021/12/09 05:03:01;;;;;;;13.23;3.88;;;4.00;99.90;;;;;;5081182;28;20024;-75
2021/12/09 05:05:32;;;;;;;15.68;4.05;;;4.00;99.90;;;;;;5083488;28;20454;-72
2021/12/09 05:07:58;;;;;;;11.88;3.70;;;4.00;99.90;;;;;;5081681;28;20545;-75
2021/12/09 05:10:23;;;;;;;7.55;3.30;;;4.10;99.90;;;;;;5076645;28;20037;-74
2021/12/09 05:12:49;;;;;;;13.98;4.30;;;4.00;99.90;;;;;;5053781;28;20021;-75
2021/12/09 05:15:15;;;;;;;10.38;4.05;;;4.10;99.90;;;;;;5060796;28;20509;-74
2021/12/09 05:17:40;;;;;;;13.40;4.40;;;4.00;99.90;;;;;;5067561;28;20021;-74
2021/12/09 05:20:07;;;;;;;12.95;3.60;;;4.10;99.90;;;;;;5063270;28;20039;-74
2021/12/09 05:22:33;;;;;;;8.43;4.32;;;4.10;99.90;;;;;;5064704;28;20469;-75
2021/12/09 05:24:59;;;;;;;10.80;4.32;;;4.00;99.90;;;;;;5065335;28;20039;-74
2021/12/09 05:27:26;;;;;;;13.52;5.72;;;4.00;99.90;;;;;;5059697;28;20396;-74
2021/12/09 05:30:04;;;;;;;12.15;4.55;;;4.00;99.90;;;;;;5066824;28;20028;-74
2021/12/09 05:32:30;;;;;;;8.57;4.15;;;3.90;99.90;;;;;;5063613;28;20119;-74
2021/12/09 05:34:56;;;;;;;14.10;4.80;;;4.00;99.90;;;;;;5062736;28;20033;-74
2021/12/09 05:37:24;;;;;;;15.55;5.18;;;4.00;99.90;;;;;;5070581;28;20103;-74
2021/12/09 05:39:53;;;;;;;10.63;4.35;;;4.00;99.90;;;;;;5064691;28;20625;-74
2021/12/09 05:42:20;;;;;;;11.10;4.07;;;3.90;99.90;;;;;;5066827;28;20036;-74
2021/12/09 05:44:46;;;;;;;9.82;4.32;;;3.90;99.90;;;;;;5064876;28;20036;-74
2021/12/09 05:47:13;;;;;;;9.23;5.13;;;3.90;99.90;;;;;;5066135;28;20436;-74
2021/12/09 05:49:46;;;;;;;11.82;4.47;;;3.80;99.90;;;;;;5064071;28;20055;-74
2021/12/09 05:52:13;;;;;;;13.52;6.25;;;3.80;99.90;;;;;;5062840;28;20025;-74
2021/12/09 05:54:39;;;;;;;11.50;4.40;;;3.80;99.90;;;;;;5067403;28;20090;-75
2021/12/09 05:57:05;;;;;;;9.82;4.90;;;3.80;99.90;;;;;;5071791;28;20024;-75
2021/12/09 05:59:31;;;;;;;16.65;4.70;;;3.80;99.90;;;;;;5069912;28;20029;-74
2021/12/09 06:01:57;;;;;;;9.02;4.00;;;3.80;99.90;;;;;;5072541;28;20048;-74
2021/12/09 06:04:23;;;;;;;9.07;4.75;;;3.80;99.90;;;;;;5072900;28;20055;-75
2021/12/09 06:06:51;;;;;;;9.15;4.05;;;3.90;99.90;;;;;;5065773;28;20024;-74
2021/12/09 06:09:17;;;;;;;9.35;4.20;;;3.90;99.90;;;;;;5074394;28;20032;-74
2021/12/09 06:11:49;;;;;;;8.13;4.60;;;3.90;99.90;;;;;;5069269;28;20029;-74
2021/12/09 06:14:15;;;;;;;9.75;5.60;;;3.80;99.90;;;;;;5066973;28;20029;-74
2021/12/09 06:16:41;;;;;;;13.00;4.60;;;3.90;99.90;;;;;;5067830;28;20029;-74
2021/12/09 06:19:07;;;;;;;18.08;4.93;;;3.70;99.90;;;;;;5068591;28;20480;-74
2021/12/09 06:21:33;;;;;;;11.23;5.40;;;3.80;99.90;;;;;;5061932;28;20408;-74
2021/12/09 06:24:00;;;;;;;17.13;5.50;;;3.90;99.90;;;;;;5068527;28;20040;-74
2021/12/09 06:26:27;;;;;;;15.20;5.18;;;3.80;99.90;;;;;;5066138;28;20017;-74
2021/12/09 06:28:53;;;;;;;11.48;4.40;;;3.80;99.90;;;;;;5072134;28;20036;-74
2021/12/09 06:31:20;;;;;;;12.00;5.10;;;3.80;99.90;;;;;;5066489;28;20389;-74
2021/12/09 06:33:46;;;;;;;20.20;5.80;;;3.80;99.90;;;;;;5070347;28;20083;-73
2021/12/09 06:36:12;;;;;;;19.98;5.68;;;3.80;99.90;;;;;;5072597;28;20021;-74
2021/12/09 06:38:38;;;;;;;12.82;5.20;;;3.80;99.90;;;;;;5068266;28;20538;-74
2021/12/09 06:41:04;;;;;;;16.92;4.88;;;3.80;99.90;;;;;;5062555;28;20021;-75
2021/12/09 06:43:30;;;;;;;12.98;6.20;;;3.80;99.90;;;;;;5067684;28;20020;-75
2021/12/09 06:45:57;;;;;;;12.73;5.70;;;3.90;99.90;;;;;;5066412;28;20392;-74
2021/12/09 06:48:23;;;;;;;11.77;4.80;;;3.80;99.90;;;;;;5065641;28;20126;-75
2021/12/09 06:50:49;;;;;;;12.50;5.30;;;3.80;99.90;;;;;;5065066;28;20094;-74
2021/12/09 06:53:16;;;;;;;11.70;5.20;;;3.80;99.90;;;;;;5063403;28;20024;-75
2021/12/09 06:55:43;;;;;;;15.52;5.65;;;3.70;99.90;;;;;;5067614;28;20093;-74
2021/12/09 06:58:09;;;;;;;16.35;6.75;;;3.80;99.90;;;;;;5062325;28;20393;-75
2021/12/09 07:00:41;;;;;;;14.35;6.75;;;3.80;99.90;;;;;;5063280;28;20028;-74
2021/12/09 07:03:08;;;;;;;8.63;5.88;;;3.70;99.90;;;;;;5060217;28;20024;-75
2021/12/09 07:05:35;;;;;;;13.13;5.93;;;3.70;99.90;;;;;;5065271;28;20040;-74
2021/12/09 07:08:02;;;;;;;16.17;5.95;;;3.70;99.90;;;;;;5060843;28;20043;-75
2021/12/09 07:10:27;;;;;;;14.10;6.70;;;3.70;99.90;;;;;;5067740;28;20101;-75
2021/12/09 07:12:53;;;;;;;12.57;5.95;;;3.70;99.90;;;;;;5060292;28;20108;-74
2021/12/09 07:15:19;;;;;;;15.70;6.78;;;3.70;99.90;;;;;;5061747;28;20021;-75
2021/12/09 07:17:45;;;;;;;12.27;6.75;;;3.70;99.90;;;;;;5061506;28;20103;-75
2021/12/09 07:20:17;;;;;;;14.13;6.63;;;3.70;99.90;;;;;;5063732;28;20565;-75
2021/12/09 07:22:45;;;;;;;20.77;8.02;;;3.70;99.90;;;;;;5063830;28;20523;-74
2021/12/09 07:25:11;;;;;;;26.15;7.97;;;3.80;99.90;;;;;;5067150;28;20017;-74
2021/12/09 07:27:36;;;;;;;13.40;7.03;;;3.70;99.90;;;;;;5068731;28;20040;-74
2021/12/09 07:30:05;;;;;;;14.32;7.25;;;3.70;99.90;;;;;;5066245;28;20044;-75
2021/12/09 07:32:32;;;;;;;21.50;8.30;;;3.80;99.90;;;;;;5065123;28;20407;-74
2021/12/09 07:34:57;;;;;;;18.30;7.78;;;3.90;99.90;;;;;;5060678;28;20023;-74
2021/12/09 07:37:23;;;;;;;18.73;7.38;;;3.80;99.90;;;;;;5059991;28;20028;-74
2021/12/09 07:39:49;;;;;;;17.70;6.63;;;3.70;99.90;;;;;;5066920;28;20330;-74
2021/12/09 07:42:15;;;;;;;15.00;6.63;;;3.70;99.90;;;;;;5065334;28;20469;-74
2021/12/09 07:44:41;;;;;;;19.67;7.05;;;3.70;99.90;;;;;;5058825;28;20477;-74
2021/12/09 07:47:07;;;;;;;17.48;8.02;;;3.70;99.90;;;;;;5059751;28;20033;-74
2021/12/09 07:49:32;;;;;;;14.02;8.05;;;3.70;99.90;;;;;;5062446;28;20028;-74
2021/12/09 07:51:58;;;;;;;16.67;8.85;;;3.80;99.90;;;;;;5063013;28;20564;-74
2021/12/09 07:54:23;;;;;;;12.60;8.18;;;3.80;99.90;;;;;;5068438;28;20103;-75
2021/12/09 07:56:49;;;;;;;16.25;7.55;;;3.80;99.90;;;;;;5062306;28;20016;-74
2021/12/09 07:59:15;;;;;;;21.73;7.15;;;3.80;99.90;;;;;;5063791;28;20123;-75
2021/12/09 08:01:41;;;;;;;21.58;7.65;;;3.80;99.90;;;;;;5064481;28;20480;-74
2021/12/09 08:04:08;;;;;;;16.73;7.50;;;3.80;99.90;;;;;;5064807;28;20063;-74
2021/12/09 08:06:35;;;;;;;23.02;8.30;;;3.90;99.90;;;;;;5067025;28;20027;-74
2021/12/09 08:09:01;;;;;;;16.67;8.60;;;3.90;99.90;;;;;;5068344;28;20078;-75
2021/12/09 08:11:27;;;;;;;17.02;7.45;;;4.00;99.90;;;;;;5067782;28;20118;-75
2021/12/09 08:13:52;;;;;;;15.60;6.82;;;4.00;99.90;;;;;;5070413;28;20391;-75
2021/12/09 08:16:18;;;;;;;19.80;7.38;;;4.00;99.90;;;;;;5080373;28;20036;-74
2021/12/09 08:18:54;;;;;;;17.33;7.10;;;4.00;99.90;;;;;;5069607;28;20088;-75
2021/12/09 08:21:27;;;;;;;14.32;7.15;;;4.10;99.90;;;;;;5068686;28;20039;-75
2021/12/09 08:23:53;;;;;;;17.55;7.22;;;4.10;99.90;;;;;;5070179;28;20086;-75
2021/12/09 08:26:20;;;;;;;18.45;7.60;;;4.20;99.90;;;;;;5067275;28;20020;-75
2021/12/09 08:28:46;;;;;;;12.05;6.78;;;4.20;99.90;;;;;;5067624;28;20380;-75
2021/12/09 08:31:12;;;;;;;16.27;6.18;;;4.30;99.90;;;;;;5069113;28;20041;-72
2021/12/09 08:33:38;;;;;;;15.75;7.20;;;4.20;99.90;;;;;;5059858;28;20322;-75
2021/12/09 08:36:04;;;;;;;16.55;7.78;;;4.20;99.90;;;;;;5069765;28;20485;-75
2021/12/09 08:38:31;;;;;;;14.10;6.43;;;4.30;99.90;;;;;;5068451;28;20032;-75
2021/12/09 08:40:56;;;;;;;28.25;11.50;;;4.40;99.90;;;;;;5065491;28;20017;-75
2021/12/09 08:43:23;;;;;;;18.08;8.52;;;4.40;99.90;;;;;;5062727;28;20032;-75
2021/12/09 08:45:51;;;;;;;15.18;7.53;;;4.40;99.90;;;;;;5063944;28;20379;-75
2021/12/09 08:48:17;;;;;;;17.85;7.75;;;4.40;99.90;;;;;;5067816;28;20076;-75
2021/12/09 08:50:44;;;;;;;19.50;7.68;;;4.40;99.90;;;;;;5058409;28;20081;-74
2021/12/09 08:53:14;;;;;;;16.15;7.43;;;4.40;99.90;;;;;;5065264;28;20029;-75
2021/12/09 08:55:41;;;;;;;13.73;7.07;;;4.50;99.90;;;;;;5063188;28;20112;-75
2021/12/09 08:58:09;;;;;;;15.88;6.68;;;4.40;99.90;;;;;;5057299;28;20025;-76
2021/12/09 09:00:35;;;;;;;12.73;7.03;;;4.40;99.90;;;;;;5063720;28;20462;-76
2021/12/09 09:03:02;;;;;;;17.88;6.70;;;4.40;99.90;;;;;;5067103;28;20024;-75
2021/12/09 09:05:29;;;;;;;15.43;7.20;;;4.50;99.90;;;;;;5061848;28;20465;-75
2021/12/09 09:07:55;;;;;;;16.45;7.32;;;4.50;99.90;;;;;;5064996;28;20027;-75
2021/12/09 09:10:24;;;;;;;15.38;6.78;;;4.40;99.90;;;;;;5064441;28;20043;-75
2021/12/09 09:12:50;;;;;;;14.00;6.70;;;4.60;99.90;;;;;;5069642;28;20114;-75
2021/12/09 09:15:18;;;;;;;20.30;8.23;;;4.60;99.90;;;;;;5068209;28;20043;-75
2021/12/09 09:17:45;;;;;;;15.55;6.57;;;4.60;99.90;;;;;;5062560;28;20417;-75
2021/12/09 09:20:13;;;;;;;16.65;6.70;;;4.60;99.90;;;;;;5064752;28;20037;-75
2021/12/09 09:22:40;;;;;;;18.88;6.78;;;4.60;99.90;;;;;;5061160;28;20128;-75
2021/12/09 09:25:17;;;;;;;17.05;6.43;;;4.60;99.90;;;;;;5056359;28;20044;-75
2021/12/09 09:27:46;;;;;;;19.77;6.93;;;4.70;99.90;;;;;;5059031;28;20724;-75
2021/12/09 09:30:14;;;;;;;30.77;15.82;;;4.80;99.90;;;;;;5056331;28;20396;-75
2021/12/09 09:32:41;;;;;;;15.00;6.68;;;4.80;99.90;;;;;;5061228;28;20032;-75
2021/12/09 09:35:09;;;;;;;20.35;7.43;;;4.90;99.90;;;;;;5059890;28;20083;-75
2021/12/09 09:37:35;;;;;;;16.05;6.25;;;5.00;99.90;;;;;;5060720;28;20016;-75
2021/12/09 09:40:05;;;;;;;20.25;8.07;;;5.00;99.90;;;;;;5067987;28;20036;-75
2021/12/09 09:44:58;;;;;;;15.13;6.18;;;5.00;99.90;;;;;;5063185;28;20029;-75
2021/12/09 09:47:27;;;;;;;19.30;6.88;;;5.00;99.90;;;;;;5066185;28;20033;-74
2021/12/09 09:49:54;;;;;;;14.82;7.07;;;5.00;99.90;;;;;;5066375;28;20262;-74
2021/12/09 09:52:20;;;;;;;15.45;7.40;;;5.00;99.90;;;;;;5071486;28;20484;-75
2021/12/09 09:54:47;;;;;;;19.92;7.90;;;5.10;99.90;;;;;;5067170;28;20025;-74
2021/12/09 09:57:14;;;;;;;16.73;7.20;;;5.10;99.90;;;;;;5069589;28;20028;-75
2021/12/09 09:59:41;;;;;;;13.95;7.30;;;5.10;99.90;;;;;;5063402;28;20042;-74
2021/12/09 10:02:08;;;;;;;23.70;7.78;;;5.10;99.90;;;;;;5071768;28;20043;-74
2021/12/09 10:04:45;;;;;;;20.90;8.20;;;5.10;99.90;;;;;;5069486;28;20641;-75
2021/12/09 10:07:14;;;;;;;16.02;8.38;;;5.00;99.90;;;;;;5065328;28;20075;-74
2021/12/09 10:09:40;;;;;;;13.65;6.78;;;5.10;99.90;;;;;;5067157;28;20425;-74
2021/12/09 10:12:07;;;;;;;28.23;8.35;;;5.10;99.90;;;;;;5068182;28;20103;-74
2021/12/09 10:14:34;;;;;;;13.48;6.75;;;5.10;99.90;;;;;;5067414;28;20043;-74
2021/12/09 10:17:15;;;;;;;12.00;6.55;;;5.20;99.90;;;;;;5079850;28;20459;-74
2021/12/09 10:19:47;;;;;;;16.20;7.68;;;5.20;99.90;;;;;;5065722;28;20020;-74
2021/12/09 10:22:16;;;;;;;12.63;6.88;;;5.20;99.90;;;;;;5069592;28;20033;-73
2021/12/09 10:24:43;;;;;;;10.55;6.85;;;5.10;99.90;;;;;;5067353;28;20496;-74
2021/12/09 10:27:18;;;;;;;13.45;6.78;;;5.20;99.90;;;;;;5068771;28;20437;-74
2021/12/09 10:29:46;;;;;;;14.88;6.90;;;5.30;99.90;;;;;;5074087;28;20029;-74
2021/12/09 10:32:20;;;;;;;15.00;7.32;;;5.30;99.90;;;;;;5066563;28;20044;-74
2021/12/09 10:34:48;;;;;;;11.90;6.47;;;5.30;99.90;;;;;;5070401;28;20020;-75
2021/12/09 10:37:22;;;;;;;10.98;6.80;;;5.40;99.90;;;;;;5072991;28;20036;-76
2021/12/09 10:40:07;;;;;;;12.82;6.57;;;5.30;99.90;;;;;;5068592;28;20471;-75
2021/12/09 10:42:45;;;;;;;9.35;5.55;;;5.40;99.90;;;;;;5072523;28;20115;-75
2021/12/09 10:45:20;;;;;;;12.85;6.57;;;5.50;99.90;;;;;;5071241;28;20027;-75
2021/12/09 10:47:56;;;;;;;33.08;11.15;;;5.50;99.90;;;;;;5064333;28;20482;-75
2021/12/09 10:53:31;;;;;;;12.75;6.50;;;5.70;99.90;;;;;;5072173;28;20028;-75
2021/12/09 10:55:55;;;;;;;11.02;7.10;;;5.70;99.90;;;;;;5071295;28;20047;-74
2021/12/09 10:58:27;;;;;;;12.40;7.25;;;5.60;99.90;;;;;;5070597;28;20047;-74
2021/12/09 11:01:12;;;;;;;12.18;6.60;;;5.70;99.90;;;;;;5074186;28;20056;-74
2021/12/09 11:03:53;;;;;;;8.25;5.90;;;5.70;99.90;;;;;;5068186;28;20032;-74
2021/12/09 11:06:32;;;;;;;12.45;5.97;;;5.70;99.90;;;;;;5072555;28;20055;-74
2021/12/09 11:09:00;;;;;;;9.80;6.07;;;5.80;99.90;;;;;;5067322;28;20035;-75
2021/12/09 11:11:34;;;;;;;7.53;5.45;;;5.90;99.90;;;;;;5070072;28;20485;-75
2021/12/09 11:14:08;;;;;;;8.43;5.38;;;6.00;99.90;;;;;;5073818;28;20020;-75
2021/12/09 11:16:43;;;;;;;9.02;5.90;;;5.90;99.90;;;;;;5077122;28;20020;-73
2021/12/09 11:19:20;;;;;;;9.95;6.43;;;5.90;99.90;;;;;;5070966;28;20036;-74
2021/12/09 11:21:56;;;;;;;9.80;5.68;;;5.90;99.90;;;;;;5068412;28;20607;-73
2021/12/09 11:24:23;;;;;;;8.38;5.47;;;6.00;99.90;;;;;;5068188;28;20064;-73
2021/12/09 11:26:57;;;;;;;7.72;5.50;;;6.00;99.90;;;;;;5073679;28;20029;-74
2021/12/09 11:29:29;;;;;;;10.02;5.63;;;6.00;99.90;;;;;;5071230;28;20040;-73
2021/12/09 11:32:22;;;;;;;9.80;5.50;;;6.00;99.90;;;;;;5069156;28;20399;-73
2021/12/09 11:35:16;;;;;;;7.03;5.20;;;5.90;99.90;;;;;;5071631;28;20048;-74
2021/12/09 11:40:28;;;;;;;14.25;5.93;;;6.00;99.90;;;;;;5071504;28;20060;-74
2021/12/09 11:42:59;;;;;;;7.97;5.47;;;5.90;99.90;;;;;;5075907;28;20529;-73
2021/12/09 11:45:36;;;;;;;8.63;5.35;;;6.00;99.90;;;;;;5068758;28;20104;-74
2021/12/09 11:48:04;;;;;;;8.00;5.43;;;6.00;99.90;;;;;;5072835;28;20028;-74
2021/12/09 11:50:34;;;;;;;8.82;5.18;;;6.10;99.90;;;;;;5071080;28;20563;-74
2021/12/09 11:53:03;;;;;;;8.73;5.60;;;6.10;99.90;;;;;;5071093;28;20076;-74
2021/12/09 11:56:01;;;;;;;8.13;5.20;;;6.10;99.90;;;;;;5067766;28;20028;-73
2021/12/09 11:58:27;;;;;;;5.95;5.38;;;6.10;99.90;;;;;;5069564;28;20036;-74
2021/12/09 12:12:33;;;;;;;7.90;5.60;;;6.30;99.90;;;;;;5060090;28;20549;-74
2021/12/09 12:15:19;;;;;;;11.57;5.70;;;6.20;99.90;;;;;;5055964;28;20492;-74
2021/12/09 12:24:03;;;;;;;10.80;7.72;;;6.20;99.90;;;;;;5058680;28;20032;-77
2021/12/09 12:40:31;;;;;;;10.02;5.97;;;6.30;99.90;;;;;;5060521;28;20043;-74
2021/12/09 12:43:07;;;;;;;10.25;5.72;;;6.40;99.90;;;;;;5060597;28;20096;-74
2021/12/09 12:45:49;;;;;;;7.68;5.30;;;6.50;99.90;;;;;;5057345;28;20028;-74
2021/12/09 12:54:02;;;;;;;7.78;5.03;;;6.40;99.90;;;;;;5060702;28;20027;-74
2021/12/09 12:56:41;;;;;;;13.32;6.00;;;6.50;99.90;;;;;;5062321;28;20028;-74
2021/12/09 12:59:15;;;;;;;8.35;5.47;;;6.50;99.90;;;;;;5059374;28;20036;-74
2021/12/09 13:03:01;;;;;;;9.80;6.40;;;6.50;99.90;;;;;;5055883;28;20033;-74
2021/12/09 13:19:32;;;;;;;15.48;6.68;;;6.60;99.90;;;;;;5062012;28;20094;-75
2021/12/09 13:22:02;;;;;;;11.43;8.27;;;6.70;99.90;;;;;;5064887;28;20511;-75
2021/12/09 13:24:42;;;;;;;12.98;6.80;;;6.70;99.90;;;;;;5072238;28;20032;-75
2021/12/09 13:27:26;;;;;;;15.88;6.28;;;6.70;99.90;;;;;;5066336;28;20074;-74
2021/12/09 13:35:41;;;;;;;12.63;6.47;;;6.70;99.90;;;;;;5063236;28;20033;-74
2021/12/09 13:38:34;;;;;;;14.02;6.05;;;6.70;99.90;;;;;;5065882;28;20032;-74
2021/12/09 13:54:08;;;;;;;14.32;6.82;;;6.80;99.90;;;;;;5065266;28;20590;-74
2021/12/09 13:54:57;;;;;;;22.67;7.05;;;6.80;99.90;;;;;;5069058;28;20013;-74
2021/12/09 13:57:34;;;;;;;13.50;6.20;;;6.90;99.90;;;;;;5067311;28;20556;-74
2021/12/09 14:00:05;;;;;;;20.77;6.28;;;6.80;99.90;;;;;;5062156;28;20017;-74
2021/12/09 14:02:30;;;;;;;16.52;7.70;;;6.90;99.90;;;;;;5066005;28;20086;-75
2021/12/09 14:04:58;;;;;;;17.67;7.45;;;6.90;99.90;;;;;;5062890;28;20508;-75
2021/12/09 14:07:41;;;;;;;19.77;6.65;;;6.80;99.90;;;;;;5057352;28;20465;-75
2021/12/09 14:10:15;;;;;;;16.67;6.85;;;6.80;99.90;;;;;;5061492;28;20037;-74
2021/12/09 14:12:49;;;;;;;16.98;6.95;;;6.80;99.90;;;;;;5058127;28;20028;-74